createdAt,value
2022-11-03T00:01:43.000Z,13.25
2022-11-03T00:04:11.832Z,17.58
2022-11-03T00:06:39.087Z,15.85
2022-11-03T00:09:07.507Z,15.50
2022-11-03T00:11:36.108Z,20.13
2022-11-03T00:14:03.491Z,18.23
2022-11-03T00:16:30.534Z,18.95
2022-11-03T00:18:56.919Z,12.75
2022-11-03T00:21:23.482Z,16.60
2022-11-03T00:23:50.326Z,24.90
2022-11-03T00:26:22.150Z,15.23
2022-11-03T00:28:50.846Z,23.02
2022-11-03T00:31:23.475Z,17.98
2022-11-03T00:33:50.801Z,15.63
2022-11-03T00:36:25.354Z,13.68
2022-11-03T00:38:52.244Z,18.73
2022-11-03T00:41:22.786Z,16.45
2022-11-03T00:43:50.511Z,20.73
2022-11-03T00:46:18.390Z,13.52
2022-11-03T00:48:44.834Z,16.77
2022-11-03T00:51:12.789Z,24.58
2022-11-03T00:53:44.343Z,14.45
2022-11-03T00:56:14.154Z,19.52
2022-11-03T00:58:42.107Z,14.88
2022-11-03T01:01:12.403Z,21.48
2022-11-03T01:03:41.707Z,21.47
2022-11-03T01:06:30.433Z,20.25
2022-11-03T01:08:59.099Z,15.57
2022-11-03T01:11:43.668Z,17.30
2022-11-03T01:14:13.637Z,18.52
2022-11-03T01:16:41.022Z,22.42
2022-11-03T01:19:08.104Z,15.52
2022-11-03T01:21:35.026Z,26.60
2022-11-03T01:24:03.075Z,29.67
2022-11-03T01:26:30.066Z,26.00
2022-11-03T01:28:58.902Z,26.85
2022-11-03T01:31:26.464Z,21.90
2022-11-03T01:33:55.151Z,15.77
2022-11-03T01:36:21.790Z,16.05
2022-11-03T01:38:48.537Z,14.63
2022-11-03T01:41:17.774Z,16.17
2022-11-03T01:43:52.025Z,19.48
2022-11-03T01:46:25.200Z,17.17
2022-11-03T01:49:05.352Z,20.70
2022-11-03T01:51:33.914Z,17.95
2022-11-03T01:54:04.062Z,28.63
2022-11-03T01:56:33.684Z,17.75
2022-11-03T01:59:00.761Z,18.48
2022-11-03T02:01:30.907Z,20.15
2022-11-03T02:04:07.607Z,14.63
2022-11-03T02:06:36.357Z,16.13
2022-11-03T02:09:08.755Z,14.50
2022-11-03T02:11:54.834Z,11.57
2022-11-03T02:14:21.716Z,10.25
2022-11-03T02:16:54.461Z,13.88
2022-11-03T02:19:30.521Z,15.35
2022-11-03T02:22:20.118Z,12.93
2022-11-03T02:25:01.955Z,19.50
2022-11-03T02:27:28.482Z,17.27
2022-11-03T02:29:55.321Z,17.05
2022-11-03T02:32:26.682Z,20.23
2022-11-03T02:35:08.684Z,25.65
2022-11-03T02:37:43.530Z,39.72
2022-11-03T02:40:32.795Z,17.48
2022-11-03T02:43:00.929Z,13.90
2022-11-03T02:45:28.345Z,19.70
2022-11-03T02:47:59.005Z,18.63
2022-11-03T02:50:34.163Z,13.00
2022-11-03T02:53:00.983Z,19.23
2022-11-03T02:55:48.643Z,16.85
2022-11-03T02:58:41.876Z,20.85
2022-11-03T03:01:32.631Z,13.45
2022-11-03T03:04:03.557Z,16.63
2022-11-03T03:06:39.252Z,21.85
2022-11-03T03:09:15.549Z,15.15
2022-11-03T03:11:43.488Z,14.82
2022-11-03T03:14:18.450Z,12.57
2022-11-03T03:16:54.884Z,17.45
2022-11-03T03:19:59.135Z,19.35
2022-11-03T03:22:35.296Z,24.40
2022-11-03T03:25:15.787Z,14.05
2022-11-03T03:27:47.293Z,17.95
2022-11-03T03:30:14.198Z,17.67
2022-11-03T03:32:49.608Z,19.50
2022-11-03T03:35:20.594Z,17.77
2022-11-03T03:37:51.014Z,21.50
2022-11-03T03:40:25.165Z,18.60
2022-11-03T03:42:52.679Z,18.05
2022-11-03T03:45:20.176Z,21.55
2022-11-03T03:47:47.470Z,26.77
2022-11-03T03:50:13.984Z,14.52
2022-11-03T03:52:40.426Z,18.00
2022-11-03T03:55:15.621Z,18.33
2022-11-03T03:57:43.072Z,21.88
2022-11-03T04:00:13.037Z,19.65
2022-11-03T04:02:39.722Z,18.35
2022-11-03T04:05:06.509Z,13.27
2022-11-03T04:07:48.246Z,15.40
2022-11-03T04:10:16.422Z,19.13
2022-11-03T04:13:19.310Z,14.68
2022-11-03T04:16:04.057Z,16.55
2022-11-03T04:18:48.824Z,19.90
2022-11-03T04:21:33.699Z,25.88
2022-11-03T04:24:02.976Z,23.70
2022-11-03T04:26:29.453Z,14.90
2022-11-03T04:28:57.249Z,15.43
2022-11-03T04:31:23.823Z,14.57
2022-11-03T04:33:50.910Z,18.95
2022-11-03T04:36:21.261Z,18.48
2022-11-03T04:38:48.856Z,10.83
2022-11-03T04:41:28.503Z,15.23
2022-11-03T04:43:55.583Z,14.88
2022-11-03T04:46:27.890Z,16.30
2022-11-03T04:48:58.394Z,17.90
2022-11-03T04:51:28.002Z,11.25
2022-11-03T04:53:58.513Z,14.77
2022-11-03T04:56:25.770Z,11.32
2022-11-03T04:58:53.617Z,22.10
2022-11-03T05:01:24.499Z,13.88
2022-11-03T05:03:53.888Z,15.95
2022-11-03T05:06:28.561Z,12.10
2022-11-03T05:09:24.708Z,13.90
2022-11-03T05:11:51.189Z,20.92
2022-11-03T05:14:23.676Z,19.13
2022-11-03T05:16:53.508Z,17.30
2022-11-03T05:19:22.441Z,14.77
2022-11-03T05:21:50.374Z,18.15
2022-11-03T05:24:21.055Z,18.48
2022-11-03T05:26:48.809Z,18.80
2022-11-03T05:29:23.820Z,14.73
2022-11-03T05:31:53.626Z,14.98
2022-11-03T05:34:35.116Z,14.82
2022-11-03T05:37:27.039Z,15.18
2022-11-03T05:39:57.485Z,17.77
2022-11-03T05:42:23.830Z,15.55
2022-11-03T05:44:51.642Z,14.50
2022-11-03T05:47:25.886Z,13.50
2022-11-03T05:50:01.803Z,14.60
2022-11-03T05:52:28.681Z,15.50
2022-11-03T05:54:57.663Z,19.00
2022-11-03T05:57:27.706Z,20.98
2022-11-03T05:59:54.674Z,15.50
2022-11-03T06:02:37.468Z,19.17
2022-11-03T06:05:18.357Z,22.15
2022-11-03T06:07:44.987Z,26.08
2022-11-03T06:10:31.212Z,18.70
2022-11-03T06:13:06.119Z,20.88
2022-11-03T06:15:35.259Z,21.08
2022-11-03T06:18:14.492Z,16.38
2022-11-03T06:20:41.544Z,15.38
2022-11-03T06:23:16.560Z,16.83
2022-11-03T06:25:43.398Z,19.10
2022-11-03T06:28:18.266Z,11.77
2022-11-03T06:30:45.908Z,13.55
2022-11-03T06:33:39.281Z,14.32
2022-11-03T06:36:24.709Z,20.17
2022-11-03T06:38:55.610Z,15.85
2022-11-03T06:41:27.374Z,15.88
2022-11-03T06:43:54.264Z,16.00
2022-11-03T06:46:26.087Z,17.67
2022-11-03T06:48:58.388Z,18.90
2022-11-03T06:51:27.625Z,17.50
2022-11-03T06:53:57.524Z,21.70
2022-11-03T06:56:31.458Z,39.50
2022-11-03T06:58:58.395Z,40.78
2022-11-03T07:01:32.702Z,43.88
2022-11-03T07:04:12.898Z,34.13
2022-11-03T07:06:39.403Z,24.02
2022-11-03T07:09:12.962Z,33.00
2022-11-03T07:11:47.488Z,40.03
2022-11-03T07:14:22.910Z,45.50
2022-11-03T07:17:00.378Z,67.40
2022-11-03T07:19:30.701Z,46.78
2022-11-03T07:22:25.447Z,42.37
2022-11-03T07:24:55.244Z,40.05
2022-11-03T07:27:53.738Z,17.92
2022-11-03T07:30:24.411Z,21.33
2022-11-03T07:32:53.676Z,20.02
2022-11-03T07:35:41.675Z,21.98
2022-11-03T07:38:19.482Z,19.95
2022-11-03T07:40:46.319Z,20.40
2022-11-03T07:43:19.942Z,18.50
2022-11-03T07:45:52.085Z,22.77
2022-11-03T07:48:27.815Z,20.58
2022-11-03T07:50:57.197Z,24.27
2022-11-03T07:53:37.151Z,23.98
2022-11-03T07:56:33.844Z,28.17
2022-11-03T07:59:04.600Z,17.70
2022-11-03T08:01:36.616Z,18.90
2022-11-03T08:04:24.612Z,26.05
2022-11-03T08:06:51.723Z,18.00
2022-11-03T08:09:19.050Z,19.05
2022-11-03T08:11:45.842Z,20.88
2022-11-03T08:14:12.732Z,20.27
2022-11-03T08:16:39.352Z,17.08
2022-11-03T08:19:06.256Z,16.33
2022-11-03T08:21:32.709Z,20.60
2022-11-03T08:23:59.154Z,19.67
2022-11-03T08:26:25.900Z,21.33
2022-11-03T08:28:52.335Z,25.30
2022-11-03T08:31:18.961Z,24.33
2022-11-03T08:33:45.351Z,26.83
2022-11-03T08:36:11.972Z,24.88
2022-11-03T08:38:38.817Z,18.17
2022-11-03T08:41:05.481Z,20.38
2022-11-03T08:43:31.924Z,26.10
2022-11-03T08:46:06.645Z,24.92
2022-11-03T08:48:39.974Z,20.73
2022-11-03T08:51:08.250Z,26.52
2022-11-03T08:53:35.323Z,23.08
2022-11-03T08:56:01.740Z,17.23
2022-11-03T08:58:28.142Z,18.45
2022-11-03T09:00:54.539Z,20.08
2022-11-03T09:03:20.954Z,19.20
2022-11-03T09:05:47.401Z,18.83
2022-11-03T09:11:00.186Z,21.92
2022-11-03T09:13:26.570Z,19.50
2022-11-03T09:15:52.987Z,26.60
2022-11-03T09:18:19.390Z,26.05
2022-11-03T09:20:45.850Z,22.92
2022-11-03T09:23:12.250Z,22.50
2022-11-03T09:25:38.689Z,20.17
2022-11-03T09:28:05.871Z,17.55
2022-11-03T09:30:32.538Z,18.25
2022-11-03T09:32:59.088Z,21.85
2022-11-03T09:35:25.496Z,18.45
2022-11-03T09:37:51.881Z,19.33
2022-11-03T09:40:19.415Z,21.90
2022-11-03T09:42:45.829Z,20.33
2022-11-03T09:45:12.351Z,18.02
2022-11-03T09:47:43.719Z,17.02
2022-11-03T09:50:16.669Z,20.58
2022-11-03T09:52:48.777Z,23.67
2022-11-03T09:55:23.797Z,21.85
2022-11-03T09:57:54.419Z,21.95
2022-11-03T10:00:22.997Z,21.08
2022-11-03T10:02:50.431Z,15.70
2022-11-03T10:05:25.491Z,17.88
2022-11-03T10:07:57.579Z,22.23
2022-11-03T10:10:24.538Z,25.63
2022-11-03T10:12:53.178Z,15.38
2022-11-03T10:15:22.552Z,14.52
2022-11-03T10:17:50.581Z,23.88
2022-11-03T10:20:20.093Z,37.90
2022-11-03T10:22:49.378Z,23.70
2022-11-03T10:25:45.824Z,22.10
2022-11-03T10:28:16.959Z,18.90
2022-11-03T10:31:17.013Z,18.38
2022-11-03T10:33:56.036Z,17.98
2022-11-03T10:36:33.976Z,20.50
2022-11-03T10:39:25.685Z,16.83
2022-11-03T10:41:58.396Z,23.52
2022-11-03T10:44:28.050Z,16.13
2022-11-03T10:47:02.876Z,23.35
2022-11-03T10:49:39.289Z,17.45
2022-11-03T10:52:24.864Z,18.60
2022-11-03T10:54:54.133Z,16.83
2022-11-03T10:57:22.544Z,23.02
2022-11-03T10:59:51.242Z,13.77
2022-11-03T11:02:22.186Z,16.42
2022-11-03T11:04:52.445Z,20.85
2022-11-03T11:07:26.685Z,14.30
2022-11-03T11:09:54.300Z,18.08
2022-11-03T11:12:25.100Z,14.65
2022-11-03T11:14:59.770Z,18.05
2022-11-03T11:17:41.159Z,14.88
2022-11-03T11:20:18.749Z,14.38
2022-11-03T11:22:45.675Z,13.77
2022-11-03T11:25:12.074Z,16.50
2022-11-03T11:27:38.420Z,16.45
2022-11-03T11:30:30.621Z,17.73
2022-11-03T11:33:01.331Z,14.60
2022-11-03T11:35:27.654Z,11.70
2022-11-03T11:37:55.385Z,13.45
2022-11-03T11:40:24.771Z,18.15
2022-11-03T11:43:04.234Z,15.15
2022-11-03T11:46:08.475Z,9.35
2022-11-03T11:48:35.386Z,11.50
2022-11-03T11:51:03.738Z,16.35
2022-11-03T11:53:39.572Z,14.48
2022-11-03T11:56:10.927Z,11.63
2022-11-03T11:58:49.165Z,15.27
2022-11-03T12:01:35.911Z,13.45
2022-11-03T12:06:48.430Z,12.00
2022-11-03T12:09:20.682Z,14.10
2022-11-03T12:11:56.384Z,20.38
2022-11-03T12:14:32.476Z,13.82
2022-11-03T12:17:17.695Z,15.68
2022-11-03T12:19:49.996Z,10.93
2022-11-03T12:22:26.058Z,10.38
2022-11-03T12:24:57.198Z,14.75
2022-11-03T12:27:26.803Z,13.80
2022-11-03T12:29:55.068Z,12.32
2022-11-03T12:32:37.125Z,15.82
2022-11-03T12:35:09.043Z,12.48
2022-11-03T12:37:35.951Z,27.70
2022-11-03T12:40:02.596Z,17.45
2022-11-03T12:42:29.007Z,24.23
2022-11-03T12:44:55.873Z,23.48
2022-11-03T12:47:22.255Z,24.77
2022-11-03T12:49:48.796Z,18.60
2022-11-03T12:52:15.337Z,20.25
2022-11-03T12:54:42.377Z,21.38
2022-11-03T12:57:08.942Z,13.70
2022-11-03T12:59:35.374Z,13.57
2022-11-03T13:02:01.864Z,22.98
2022-11-03T13:04:28.335Z,21.70
2022-11-03T13:06:54.754Z,35.72
2022-11-03T13:09:21.451Z,25.58
2022-11-03T13:12:06.218Z,34.03
2022-11-03T13:14:32.599Z,31.08
2022-11-03T13:16:58.977Z,31.25
2022-11-03T13:19:25.800Z,30.05
2022-11-03T13:21:52.161Z,28.42
2022-11-03T13:24:18.545Z,30.77
2022-11-03T13:26:44.919Z,27.17
2022-11-03T13:29:11.436Z,61.58
2022-11-03T13:31:37.878Z,84.68
2022-11-03T13:34:04.317Z,83.32
2022-11-03T13:36:30.796Z,38.33
2022-11-03T13:38:57.316Z,29.50
2022-11-03T13:41:23.679Z,20.15
2022-11-03T13:43:50.085Z,30.55
2022-11-03T13:46:16.442Z,33.33
2022-11-03T13:51:29.441Z,25.77
2022-11-03T13:59:29.018Z,24.30
2022-11-03T14:04:43.145Z,23.35
2022-11-03T14:07:10.421Z,22.20
2022-11-03T14:14:53.393Z,22.40
2022-11-03T14:17:19.774Z,19.50
2022-11-03T14:19:50.381Z,19.17
2022-11-03T14:22:19.668Z,20.02
2022-11-03T14:24:46.200Z,16.13
2022-11-03T14:27:13.604Z,16.48
2022-11-03T14:29:39.991Z,17.58
2022-11-03T14:32:06.436Z,15.27
2022-11-03T14:34:32.978Z,14.02
2022-11-03T14:36:59.548Z,18.92
2022-11-03T14:39:26.299Z,16.42
